Time;durP1;ratioP1;P1;durP2;ratioP2;P2;SDS_P1;SDS_P2;PMS_P1;PMS_P2;Temp;Humidity;BMP_temperature;BMP_pressure;BME280_temperature;BME280_humidity;BME280_pressure;Samples;Min_cycle;Max_cycle;Signal;HPM_P1;HPM_P2
2022/10/08 00:01:04;;;;;;;14.82;7.55;;;19.20;91.70;;;;;;6338635;22;20006;-81
2022/10/08 00:03:32;;;;;;;15.82;7.53;;;19.10;91.50;;;;;;6336812;22;20009;-81
2022/10/08 00:06:01;;;;;;;12.82;8.13;;;19.10;91.20;;;;;;6337978;22;19999;-81
2022/10/08 00:08:28;;;;;;;19.08;9.15;;;19.10;91.20;;;;;;6337152;22;19995;-81
2022/10/08 00:11:02;;;;;;;12.20;7.57;;;19.00;91.20;;;;;;6338283;22;20006;-80
2022/10/08 00:13:39;;;;;;;12.63;7.25;;;19.00;91.20;;;;;;6337474;22;19995;-81
2022/10/08 00:16:32;;;;;;;13.75;7.35;;;19.00;91.40;;;;;;6337576;22;19999;-82
2022/10/08 00:19:00;;;;;;;15.20;8.30;;;18.90;91.40;;;;;;6338307;22;20418;-82
2022/10/08 00:21:32;;;;;;;16.50;8.23;;;18.90;91.40;;;;;;6337476;22;20003;-82
2022/10/08 00:24:00;;;;;;;10.70;7.53;;;18.80;91.40;;;;;;6338663;22;20014;-84
2022/10/08 00:26:27;;;;;;;10.85;7.60;;;18.80;91.50;;;;;;6337458;22;20401;-84
2022/10/08 00:28:55;;;;;;;12.20;7.90;;;18.70;91.60;;;;;;6337989;22;20002;-82
2022/10/08 00:31:33;;;;;;;12.88;8.15;;;18.70;91.60;;;;;;6337538;22;20044;-81
2022/10/08 00:34:01;;;;;;;11.32;7.35;;;18.60;91.70;;;;;;6339520;22;20003;-79
2022/10/08 00:36:30;;;;;;;14.90;8.50;;;18.60;91.70;;;;;;6338301;22;20010;-80
2022/10/08 00:39:02;;;;;;;13.13;7.95;;;18.60;91.80;;;;;;6339059;22;20302;-82
2022/10/08 00:41:30;;;;;;;12.75;7.97;;;18.60;91.60;;;;;;6339619;22;20013;-80
2022/10/08 00:43:58;;;;;;;22.88;8.52;;;18.50;91.60;;;;;;6338681;22;20018;-80
2022/10/08 00:46:30;;;;;;;15.93;8.57;;;18.50;91.50;;;;;;6339059;22;20009;-80
2022/10/08 00:49:20;;;;;;;10.82;7.43;;;18.50;91.40;;;;;;6339840;22;20022;-80
2022/10/08 00:51:50;;;;;;;11.57;6.63;;;18.60;91.40;;;;;;6338940;22;19995;-80
2022/10/08 00:54:18;;;;;;;14.20;7.68;;;18.70;91.40;;;;;;6339358;22;20005;-80
2022/10/08 00:56:46;;;;;;;13.43;7.07;;;18.70;91.20;;;;;;6310570;22;20019;-80
2022/10/08 00:59:12;;;;;;;15.18;7.95;;;18.70;91.00;;;;;;6338853;22;20003;-80
2022/10/08 01:01:42;;;;;;;9.40;7.68;;;18.70;90.90;;;;;;6339445;22;20007;-80
2022/10/08 01:04:09;;;;;;;18.55;8.40;;;18.70;90.90;;;;;;6338734;22;20035;-79
2022/10/08 01:07:13;;;;;;;17.30;8.75;;;18.60;91.10;;;;;;6338776;22;20003;-80
2022/10/08 01:09:58;;;;;;;15.13;7.95;;;18.60;91.00;;;;;;6339815;22;19999;-80
2022/10/08 01:12:34;;;;;;;14.82;8.10;;;18.60;91.00;;;;;;6339004;22;20026;-81
2022/10/08 01:15:22;;;;;;;23.20;8.90;;;18.50;91.00;;;;;;6338618;22;19995;-81
2022/10/08 01:17:53;;;;;;;14.40;8.40;;;18.40;91.10;;;;;;6311398;22;20329;-82
2022/10/08 01:20:31;;;;;;;12.90;9.48;;;18.40;91.20;;;;;;6338760;22;20022;-82
2022/10/08 01:23:14;;;;;;;12.32;8.07;;;18.20;91.30;;;;;;6338120;22;20006;-82
2022/10/08 01:26:02;;;;;;;12.15;8.48;;;18.20;91.50;;;;;;6339107;22;20010;-82
2022/10/08 01:28:34;;;;;;;13.52;8.32;;;18.20;91.50;;;;;;6339053;22;20002;-81
2022/10/08 01:31:08;;;;;;;12.82;8.02;;;18.30;91.50;;;;;;6338912;22;20002;-81
2022/10/08 01:33:42;;;;;;;15.43;8.63;;;18.30;91.50;;;;;;6338586;22;20002;-81
2022/10/08 01:36:11;;;;;;;13.88;8.68;;;18.40;91.40;;;;;;6338291;22;20025;-82
2022/10/08 01:38:44;;;;;;;14.45;9.43;;;18.40;91.20;;;;;;6339148;22;20003;-81
2022/10/08 01:41:12;;;;;;;14.82;8.73;;;18.40;91.20;;;;;;6338671;22;20029;-82
2022/10/08 01:43:44;;;;;;;18.17;9.68;;;18.30;91.30;;;;;;6337972;22;20413;-81
2022/10/08 01:46:23;;;;;;;18.83;9.77;;;18.30;91.30;;;;;;6338225;22;20417;-81
2022/10/08 01:48:52;;;;;;;17.53;9.70;;;18.30;91.30;;;;;;6339459;22;20080;-80
2022/10/08 01:51:27;;;;;;;14.93;9.82;;;18.30;91.40;;;;;;6338993;22;20164;-79
2022/10/08 01:53:54;;;;;;;19.35;9.77;;;18.30;91.40;;;;;;6337716;22;19999;-79
2022/10/08 01:56:26;;;;;;;14.65;9.82;;;18.30;91.40;;;;;;6338508;22;20046;-80
2022/10/08 01:59:14;;;;;;;15.18;8.60;;;18.30;91.40;;;;;;6338958;22;19999;-80
2022/10/08 02:01:51;;;;;;;12.07;8.55;;;18.30;91.50;;;;;;6337935;22;20113;-81
2022/10/08 02:04:34;;;;;;;15.95;10.48;;;18.30;91.40;;;;;;6336958;22;20002;-81
2022/10/08 02:07:14;;;;;;;12.00;8.63;;;18.40;91.30;;;;;;6337898;22;20002;-81
2022/10/08 02:09:42;;;;;;;14.87;9.87;;;18.30;91.30;;;;;;6338660;22;20417;-81
2022/10/08 02:12:10;;;;;;;19.58;10.00;;;18.30;91.30;;;;;;6338576;22;20022;-82
2022/10/08 02:14:47;;;;;;;13.93;8.65;;;18.30;91.30;;;;;;6338533;22;20367;-82
2022/10/08 02:17:34;;;;;;;15.85;9.80;;;18.30;91.50;;;;;;6338950;22;19995;-81
2022/10/08 02:20:31;;;;;;;14.57;9.05;;;18.20;91.20;;;;;;6337812;22;19995;-80
2022/10/08 02:23:21;;;;;;;12.10;8.57;;;18.10;91.20;;;;;;6311285;22;20001;-81
2022/10/08 02:25:58;;;;;;;;;;;18.00;91.50;;;;;;6339094;22;20074;-81
2022/10/08 02:28:38;;;;;;;13.68;8.88;;;18.00;91.40;;;;;;6337948;22;19899;-82
2022/10/08 02:31:13;;;;;;;13.50;9.57;;;17.90;91.60;;;;;;6338910;22;19995;-82
2022/10/08 02:33:46;;;;;;;12.30;9.55;;;17.80;91.70;;;;;;6338281;22;20002;-81
2022/10/08 02:36:16;;;;;;;14.40;8.55;;;17.80;91.60;;;;;;6338971;22;20072;-82
2022/10/08 02:38:51;;;;;;;12.10;9.00;;;17.90;91.70;;;;;;6338261;22;20003;-81
2022/10/08 02:41:22;;;;;;;13.18;8.55;;;17.90;91.60;;;;;;6338566;22;20025;-83
2022/10/08 02:43:49;;;;;;;10.85;7.50;;;17.90;91.60;;;;;;6338119;22;20009;-83
2022/10/08 02:46:20;;;;;;;10.68;8.55;;;17.90;91.60;;;;;;6338471;22;20007;-83
2022/10/08 02:48:51;;;;;;;17.25;8.85;;;17.90;91.50;;;;;;6309518;22;19999;-83
2022/10/08 02:51:19;;;;;;;18.02;8.13;;;17.90;91.50;;;;;;6309414;22;20333;-82
2022/10/08 02:53:48;;;;;;;9.38;7.07;;;17.80;91.50;;;;;;6336271;22;20003;-83
2022/10/08 02:56:16;;;;;;;9.48;6.65;;;17.90;91.50;;;;;;6337035;22;20440;-82
2022/10/08 02:58:44;;;;;;;10.38;7.30;;;17.90;91.60;;;;;;6336659;22;20000;-82
2022/10/08 03:01:31;;;;;;;10.27;7.45;;;17.90;91.50;;;;;;6337071;22;20010;-82
2022/10/08 03:04:11;;;;;;;10.75;6.97;;;18.00;91.50;;;;;;6336653;22;20003;-80
2022/10/08 03:06:38;;;;;;;7.47;6.63;;;18.00;91.40;;;;;;6336758;22;20007;-80
2022/10/08 03:09:06;;;;;;;8.30;7.28;;;18.00;91.30;;;;;;6336941;22;20009;-83
2022/10/08 03:11:33;;;;;;;9.18;6.57;;;18.00;91.30;;;;;;6336922;22;20005;-82
2022/10/08 03:14:03;;;;;;;11.00;7.65;;;18.00;91.30;;;;;;6336803;22;20031;-81
2022/10/08 03:16:37;;;;;;;12.13;7.00;;;18.00;91.20;;;;;;6336854;22;20018;-83
2022/10/08 03:19:04;;;;;;;9.20;6.45;;;18.00;91.20;;;;;;6308814;22;20090;-82
2022/10/08 03:21:30;;;;;;;11.98;7.20;;;18.00;91.20;;;;;;6335977;22;20003;-82
2022/10/08 03:23:56;;;;;;;11.30;6.68;;;18.00;91.20;;;;;;6336140;22;19998;-80
2022/10/08 03:26:22;;;;;;;9.90;6.50;;;18.00;91.30;;;;;;6337056;22;20002;-80
2022/10/08 03:28:47;;;;;;;10.38;7.22;;;18.00;91.30;;;;;;6336827;22;20003;-79
2022/10/08 03:31:32;;;;;;;11.65;6.25;;;18.10;91.30;;;;;;6336513;22;20402;-79
2022/10/08 03:33:58;;;;;;;8.75;6.10;;;18.10;91.20;;;;;;6336579;22;20411;-80
2022/10/08 03:36:24;;;;;;;8.75;6.30;;;18.10;91.30;;;;;;6337059;22;19999;-81
2022/10/08 03:38:51;;;;;;;15.68;7.13;;;18.10;91.10;;;;;;6336908;22;20982;-80
2022/10/08 03:41:17;;;;;;;11.48;6.80;;;18.00;91.20;;;;;;6336334;22;20056;-80
2022/10/08 03:43:43;;;;;;;9.57;6.20;;;18.00;91.20;;;;;;6336677;22;20013;-80
2022/10/08 03:46:11;;;;;;;12.38;6.90;;;18.00;91.30;;;;;;6309347;22;20456;-79
2022/10/08 03:48:38;;;;;;;11.75;7.30;;;17.90;91.20;;;;;;6336786;22;19995;-81
2022/10/08 03:51:10;;;;;;;10.52;6.15;;;17.90;91.20;;;;;;6336325;22;20003;-81
2022/10/08 03:53:37;;;;;;;10.38;7.32;;;17.90;91.20;;;;;;6336729;22;19995;-80
2022/10/08 03:56:05;;;;;;;16.58;7.40;;;17.90;91.30;;;;;;6336618;22;20029;-81
2022/10/08 03:58:32;;;;;;;9.48;5.55;;;17.90;91.40;;;;;;6336785;22;20007;-81
2022/10/08 04:01:03;;;;;;;8.20;6.15;;;17.90;91.40;;;;;;6336433;22;19998;-81
2022/10/08 04:03:30;;;;;;;12.00;7.15;;;17.90;91.30;;;;;;6336889;22;20363;-82
2022/10/08 04:05:56;;;;;;;10.05;7.20;;;17.80;91.20;;;;;;6337057;22;20010;-81
2022/10/08 04:08:23;;;;;;;11.15;7.65;;;17.70;91.20;;;;;;6338577;22;20070;-82
2022/10/08 04:10:48;;;;;;;9.18;6.97;;;17.60;91.30;;;;;;6338072;22;20074;-82
2022/10/08 04:13:15;;;;;;;11.90;7.40;;;17.60;91.30;;;;;;6338519;22;20048;-82
2022/10/08 04:15:42;;;;;;;15.45;7.72;;;17.70;91.20;;;;;;6338769;22;20405;-82
2022/10/08 04:18:11;;;;;;;13.57;7.03;;;17.70;91.20;;;;;;6338471;22;20010;-83
2022/10/08 04:20:41;;;;;;;12.60;6.97;;;17.70;91.10;;;;;;6308852;22;20563;-83
2022/10/08 04:23:07;;;;;;;11.18;7.38;;;17.70;91.20;;;;;;6338121;22;20221;-82
2022/10/08 04:25:35;;;;;;;17.55;6.95;;;17.70;91.30;;;;;;6338456;22;20002;-79
2022/10/08 04:28:01;;;;;;;13.45;8.80;;;17.70;91.30;;;;;;6337613;22;20013;-81
2022/10/08 04:30:28;;;;;;;15.95;6.90;;;17.70;91.20;;;;;;6337908;22;20006;-81
2022/10/08 04:32:55;;;;;;;14.32;8.27;;;17.70;91.40;;;;;;6338040;22;20006;-80
2022/10/08 04:35:20;;;;;;;12.32;7.70;;;17.70;91.50;;;;;;6337791;22;19999;-80
2022/10/08 04:37:46;;;;;;;11.52;6.72;;;17.60;91.40;;;;;;6338228;22;20014;-80
2022/10/08 04:40:12;;;;;;;11.07;6.90;;;17.60;91.70;;;;;;6337554;22;20097;-80
2022/10/08 04:42:37;;;;;;;9.68;6.93;;;17.60;91.40;;;;;;6338021;22;20003;-80
2022/10/08 04:45:05;;;;;;;12.13;7.10;;;17.60;91.50;;;;;;6337614;22;19999;-80
2022/10/08 04:47:31;;;;;;;9.38;7.07;;;17.50;91.50;;;;;;6337926;22;19994;-81
2022/10/08 04:49:56;;;;;;;10.57;7.57;;;17.50;91.50;;;;;;6338146;22;20040;-81
2022/10/08 04:52:22;;;;;;;10.98;6.75;;;17.50;91.50;;;;;;6337957;22;20020;-80
2022/10/08 04:54:48;;;;;;;9.32;6.25;;;17.50;91.60;;;;;;6337992;22;20052;-81
2022/10/08 04:57:14;;;;;;;9.13;5.95;;;17.50;91.50;;;;;;6310311;22;20019;-81
2022/10/08 04:59:41;;;;;;;6.97;5.80;;;17.50;91.50;;;;;;6337681;22;20070;-81
2022/10/08 05:02:06;;;;;;;10.38;5.85;;;17.50;91.10;;;;;;6337474;22;20078;-81
2022/10/08 05:04:32;;;;;;;9.35;5.88;;;17.50;91.20;;;;;;6337491;22;20068;-81
2022/10/08 05:06:57;;;;;;;11.32;5.75;;;17.50;91.40;;;;;;6337721;22;20006;-81
2022/10/08 05:09:23;;;;;;;7.18;5.07;;;17.50;91.20;;;;;;6337209;22;19998;-81
2022/10/08 05:11:50;;;;;;;11.55;5.30;;;17.60;91.10;;;;;;6337190;22;20030;-82
2022/10/08 05:14:16;;;;;;;8.25;6.22;;;17.60;90.90;;;;;;6336603;22;19999;-81
2022/10/08 05:16:42;;;;;;;9.75;5.80;;;17.50;91.00;;;;;;6337488;22;20010;-83
2022/10/08 05:19:07;;;;;;;11.02;6.03;;;17.50;91.00;;;;;;6308895;22;20124;-83
2022/10/08 05:21:33;;;;;;;11.18;5.82;;;17.50;91.00;;;;;;6337227;22;20029;-83
2022/10/08 05:24:02;;;;;;;9.88;6.00;;;17.40;91.00;;;;;;6337468;22;20429;-83
2022/10/08 05:26:30;;;;;;;9.52;6.03;;;17.40;91.00;;;;;;6337551;22;20029;-83
2022/10/08 05:28:58;;;;;;;8.75;5.20;;;17.40;91.30;;;;;;6337163;22;19999;-83
2022/10/08 05:31:25;;;;;;;10.98;5.63;;;17.40;91.00;;;;;;6336910;22;20578;-83
2022/10/08 05:33:52;;;;;;;10.10;5.60;;;17.30;91.10;;;;;;6337653;22;19999;-84
2022/10/08 05:36:23;;;;;;;6.22;4.90;;;17.40;91.00;;;;;;6338043;22;20003;-84
2022/10/08 05:38:49;;;;;;;11.73;5.45;;;17.40;91.00;;;;;;6338041;22;20121;-79
2022/10/08 05:41:17;;;;;;;7.22;4.45;;;17.50;91.00;;;;;;6337738;22;20030;-81
2022/10/08 05:43:43;;;;;;;10.02;4.55;;;17.50;90.70;;;;;;6336854;22;20003;-80
2022/10/08 05:46:09;;;;;;;8.63;4.65;;;17.50;90.60;;;;;;6337764;22;20056;-88
2022/10/08 05:48:35;;;;;;;9.77;5.03;;;17.50;90.60;;;;;;6337903;22;20427;-80
2022/10/08 05:51:06;;;;;;;7.53;4.65;;;17.50;90.60;;;;;;6310507;22;20086;-83
2022/10/08 05:53:37;;;;;;;8.25;5.30;;;17.40;90.70;;;;;;6336915;22;20077;-83
2022/10/08 05:56:05;;;;;;;17.08;5.93;;;17.40;90.70;;;;;;6337009;22;20017;-83
2022/10/08 05:58:33;;;;;;;15.98;6.07;;;17.30;90.70;;;;;;6336699;22;20014;-82
2022/10/08 06:01:02;;;;;;;14.50;5.90;;;17.20;90.70;;;;;;6333249;22;20011;-82
2022/10/08 06:03:28;;;;;;;14.50;6.10;;;17.10;90.90;;;;;;6335885;22;20013;-83
2022/10/08 06:05:54;;;;;;;6.93;4.78;;;17.10;91.10;;;;;;6336693;22;20006;-84
2022/10/08 06:08:21;;;;;;;8.48;4.82;;;17.00;91.20;;;;;;6309165;22;20460;-83
2022/10/08 06:10:51;;;;;;;8.65;5.28;;;17.00;91.20;;;;;;6309299;22;20444;-82
2022/10/08 06:13:17;;;;;;;;;;;17.00;91.20;;;;;;6337787;22;19999;-84
2022/10/08 06:15:52;;;;;;;6.72;4.55;;;17.00;91.20;;;;;;6336142;22;20288;-83
2022/10/08 06:18:17;;;;;;;8.55;4.90;;;17.00;91.00;;;;;;6337324;22;20007;-83
2022/10/08 06:20:43;;;;;;;4.13;3.72;;;17.00;91.20;;;;;;6336950;22;20137;-81
2022/10/08 06:23:09;;;;;;;7.88;4.07;;;17.00;91.00;;;;;;6337015;22;20426;-79
2022/10/08 06:25:37;;;;;;;8.95;4.43;;;17.10;91.10;;;;;;6337665;22;20413;-78
2022/10/08 06:28:03;;;;;;;10.73;4.60;;;17.20;91.10;;;;;;6337087;22;20493;-84
2022/10/08 06:30:29;;;;;;;9.73;4.72;;;17.30;91.10;;;;;;6335802;22;20030;-77
2022/10/08 06:32:54;;;;;;;9.15;5.43;;;17.40;90.90;;;;;;6337368;22;20364;-75
2022/10/08 06:35:20;;;;;;;10.55;4.53;;;17.40;90.80;;;;;;6309783;22;20003;-84
2022/10/08 06:37:49;;;;;;;10.57;4.82;;;17.50;90.80;;;;;;6336688;22;20060;-84
2022/10/08 06:40:14;;;;;;;9.23;4.15;;;17.50;90.70;;;;;;6337187;22;20027;-85
2022/10/08 06:42:40;;;;;;;5.78;3.97;;;17.50;90.70;;;;;;6338288;22;20030;-86
2022/10/08 06:45:06;;;;;;;9.52;4.32;;;17.60;90.90;;;;;;6339033;22;20014;-86
2022/10/08 06:47:32;;;;;;;8.43;4.28;;;17.60;90.40;;;;;;6336972;22;20086;-85
2022/10/08 06:49:58;;;;;;;13.13;5.45;;;17.60;90.50;;;;;;6338408;22;20027;-86
2022/10/08 06:52:23;;;;;;;6.97;4.20;;;17.70;90.50;;;;;;6338219;22;20044;-89
2022/10/08 06:54:50;;;;;;;9.38;3.65;;;17.70;90.40;;;;;;6337935;22;19999;-86
2022/10/08 06:57:15;;;;;;;10.73;4.05;;;17.70;90.30;;;;;;6304133;22;20030;-78
2022/10/08 06:59:41;;;;;;;5.97;4.03;;;17.70;90.50;;;;;;6329969;22;20006;-85
2022/10/08 07:02:09;;;;;;;9.48;3.80;;;17.80;90.10;;;;;;6330950;22;20003;-78
2022/10/08 07:04:36;;;;;;;8.25;3.80;;;17.80;90.30;;;;;;6331673;22;20029;-78
2022/10/08 07:07:01;;;;;;;11.90;3.90;;;17.80;90.20;;;;;;6335487;22;20006;-79
2022/10/08 07:09:27;;;;;;;8.00;3.80;;;17.80;90.10;;;;;;6338500;22;19999;-83
2022/10/08 07:11:53;;;;;;;6.15;3.17;;;17.80;89.80;;;;;;6310487;22;20037;-83
2022/10/08 07:14:19;;;;;;;7.85;3.70;;;17.80;90.00;;;;;;6302507;22;20061;-85
2022/10/08 07:16:45;;;;;;;10.18;3.58;;;17.80;89.70;;;;;;6307567;22;20007;-85
2022/10/08 07:19:10;;;;;;;8.05;4.25;;;17.80;89.90;;;;;;6335404;22;20432;-83
2022/10/08 07:21:36;;;;;;;11.73;5.25;;;17.80;89.70;;;;;;6308831;22;20011;-84
2022/10/08 07:24:02;;;;;;;11.15;5.25;;;17.80;89.30;;;;;;6336805;22;20366;-84
2022/10/08 07:26:32;;;;;;;12.20;5.30;;;17.80;90.00;;;;;;6336785;22;20010;-85
2022/10/08 07:29:00;;;;;;;13.32;4.50;;;17.80;90.00;;;;;;6336976;22;20026;-84
2022/10/08 07:31:30;;;;;;;10.05;4.63;;;17.80;89.70;;;;;;6334361;22;20006;-84
2022/10/08 07:33:57;;;;;;;7.57;4.65;;;17.90;89.80;;;;;;6330563;22;20003;-85
2022/10/08 07:36:25;;;;;;;7.63;4.65;;;18.00;89.70;;;;;;6334251;22;20059;-86
2022/10/08 07:38:55;;;;;;;7.25;4.03;;;18.00;89.30;;;;;;6305374;22;20429;-86
2022/10/08 07:41:21;;;;;;;;;;;18.10;89.40;;;;;;6336851;22;20052;-86
2022/10/08 07:43:51;;;;;;;5.78;3.55;;;18.10;89.40;;;;;;6308816;22;19898;-84
2022/10/08 07:46:16;;;;;;;14.23;4.50;;;18.20;89.40;;;;;;6336583;22;20030;-88
2022/10/08 07:48:42;;;;;;;6.43;3.70;;;18.40;88.70;;;;;;6336229;22;20062;-87
2022/10/08 07:51:10;;;;;;;7.18;3.72;;;18.50;88.70;;;;;;6337476;22;19999;-86
2022/10/08 07:53:36;;;;;;;10.25;3.80;;;18.60;88.30;;;;;;6337172;22;20002;-86
2022/10/08 07:56:07;;;;;;;8.07;4.00;;;18.70;87.80;;;;;;6335641;22;20326;-87
2022/10/08 07:58:32;;;;;;;5.63;3.58;;;18.90;87.70;;;;;;6307986;22;20064;-86
2022/10/08 08:01:00;;;;;;;5.30;3.53;;;19.00;87.20;;;;;;6336107;22;20006;-79
2022/10/08 08:03:26;;;;;;;3.25;2.50;;;19.10;87.20;;;;;;6337652;22;20030;-78
2022/10/08 08:05:52;;;;;;;4.57;3.03;;;19.30;86.90;;;;;;6337494;22;20022;-79
2022/10/08 08:08:23;;;;;;;7.95;3.88;;;19.40;86.50;;;;;;6334788;22;20110;-87
2022/10/08 08:10:54;;;;;;;7.13;2.88;;;19.60;86.20;;;;;;6309737;22;20003;-87
2022/10/08 08:13:20;;;;;;;10.27;3.38;;;19.70;86.10;;;;;;6338360;22;20003;-86
2022/10/08 08:15:45;;;;;;;5.47;2.88;;;19.80;85.30;;;;;;6338668;22;20427;-86
2022/10/08 08:18:11;;;;;;;9.02;3.20;;;20.00;85.30;;;;;;6338213;22;20056;-86
2022/10/08 08:20:37;;;;;;;7.93;2.42;;;20.20;85.10;;;;;;6310632;22;20006;-87
2022/10/08 08:23:02;;;;;;;6.80;2.42;;;20.30;84.50;;;;;;6338474;22;20010;-87
2022/10/08 08:25:28;;;;;;;5.47;2.40;;;20.50;84.50;;;;;;6338515;22;20059;-87
2022/10/08 08:27:54;;;;;;;4.22;2.70;;;20.70;83.90;;;;;;6311130;22;20003;-87
2022/10/08 08:30:20;;;;;;;5.38;2.60;;;20.90;83.10;;;;;;6337907;22;19999;-87
2022/10/08 08:32:45;;;;;;;4.63;3.00;;;21.00;83.20;;;;;;6338284;22;20070;-79
2022/10/08 08:35:11;;;;;;;8.73;3.30;;;21.10;83.10;;;;;;6339380;22;19999;-87
2022/10/08 08:37:36;;;;;;;4.03;2.60;;;21.20;81.20;;;;;;6341109;22;20009;-86
2022/10/08 08:40:02;;;;;;;6.75;2.58;;;21.30;81.80;;;;;;6337206;22;20006;-80
2022/10/08 08:42:46;;;;;;;8.20;3.35;;;21.50;81.30;;;;;;6334806;22;19998;-79
2022/10/08 08:45:30;;;;;;;5.03;2.65;;;21.60;80.80;;;;;;6337409;22;19998;-86
2022/10/08 08:48:12;;;;;;;3.35;2.58;;;21.80;81.20;;;;;;6303349;22;20017;-86
2022/10/08 08:50:41;;;;;;;6.25;2.97;;;21.70;80.10;;;;;;6333730;22;20002;-83
2022/10/08 08:53:09;;;;;;;4.30;2.30;;;21.90;79.80;;;;;;6336471;22;20102;-83
2022/10/08 08:55:46;;;;;;;7.15;2.63;;;22.00;79.90;;;;;;6335108;22;19999;-84
2022/10/08 08:58:24;;;;;;;10.63;2.90;;;22.20;79.40;;;;;;6337887;22;20074;-87
2022/10/08 09:01:06;;;;;;;6.07;2.83;;;22.40;78.60;;;;;;6335480;22;20007;-83
2022/10/08 09:03:40;;;;;;;5.57;2.40;;;22.50;77.90;;;;;;6337973;22;19999;-85
2022/10/08 09:06:10;;;;;;;5.80;2.90;;;22.70;78.40;;;;;;6336480;22;20003;-86
2022/10/08 09:08:44;;;;;;;7.00;2.83;;;22.90;77.00;;;;;;6336535;22;19995;-78
2022/10/08 09:11:14;;;;;;;3.67;2.20;;;23.10;77.00;;;;;;6336095;22;20057;-79
2022/10/08 09:14:09;;;;;;;7.90;2.92;;;23.30;77.40;;;;;;6336074;22;20106;-76
2022/10/08 09:16:35;;;;;;;6.07;2.97;;;23.50;76.20;;;;;;6336266;22;20014;-79
2022/10/08 09:19:01;;;;;;;4.25;2.63;;;23.60;75.80;;;;;;6336666;22;20007;-79
2022/10/08 09:21:30;;;;;;;4.20;2.20;;;23.60;75.40;;;;;;6335302;22;20464;-79
2022/10/08 09:23:56;;;;;;;3.85;2.00;;;23.60;75.80;;;;;;6337168;22;19999;-79
2022/10/08 09:26:24;;;;;;;2.45;2.20;;;23.80;75.80;;;;;;6334911;22;19998;-83
2022/10/08 09:28:52;;;;;;;5.40;2.78;;;23.90;76.00;;;;;;6337890;22;19999;-85
2022/10/08 09:31:36;;;;;;;3.53;2.00;;;24.00;75.00;;;;;;6335413;22;19998;-78
2022/10/08 09:34:16;;;;;;;7.53;2.72;;;24.10;74.80;;;;;;6336132;22;20050;-83
2022/10/08 09:36:45;;;;;;;6.38;2.55;;;24.10;73.70;;;;;;6309352;22;20369;-82
2022/10/08 09:39:31;;;;;;;2.58;1.80;;;24.10;73.70;;;;;;6337004;22;20329;-82
2022/10/08 09:42:06;;;;;;;3.45;2.10;;;24.10;74.60;;;;;;6309477;22;20031;-84
2022/10/08 09:44:57;;;;;;;3.63;1.75;;;24.20;74.70;;;;;;6336553;22;20010;-82
2022/10/08 09:47:25;;;;;;;3.97;2.20;;;24.40;74.80;;;;;;6336827;22;20007;-75
2022/10/08 09:50:17;;;;;;;5.43;2.00;;;24.70;74.10;;;;;;6335976;22;20052;-81
2022/10/08 09:52:45;;;;;;;4.03;1.90;;;24.90;74.50;;;;;;6335982;22;19995;-79
2022/10/08 09:55:31;;;;;;;4.25;1.85;;;25.00;71.70;;;;;;6337482;22;19999;-80
2022/10/08 09:58:02;;;;;;;3.20;2.00;;;25.10;71.20;;;;;;6337217;22;20460;-79
2022/10/08 10:00:38;;;;;;;6.22;1.73;;;25.10;71.60;;;;;;6337301;22;19999;-76
2022/10/08 10:03:14;;;;;;;7.40;1.98;;;25.20;71.90;;;;;;6337651;22;20455;-75
2022/10/08 10:05:40;;;;;;;5.80;2.10;;;25.40;71.60;;;;;;6338219;22;20014;-72
2022/10/08 10:08:05;;;;;;;9.63;1.85;;;25.40;70.50;;;;;;6336980;22;20003;-75
2022/10/08 10:10:47;;;;;;;4.80;1.55;;;25.40;71.40;;;;;;6336597;22;20034;-75
2022/10/08 10:13:20;;;;;;;3.72;1.80;;;25.50;71.00;;;;;;6336773;22;19994;-75
2022/10/08 10:15:50;;;;;;;4.07;1.77;;;25.50;71.10;;;;;;6337145;22;20048;-75
2022/10/08 10:18:28;;;;;;;4.45;1.80;;;25.60;70.80;;;;;;6335837;22;20022;-75
2022/10/08 10:20:58;;;;;;;6.22;2.15;;;25.70;70.70;;;;;;6336110;22;20029;-75
2022/10/08 10:23:45;;;;;;;3.10;1.92;;;25.80;70.50;;;;;;6337373;22;19999;-80
2022/10/08 10:26:15;;;;;;;5.30;1.98;;;25.90;69.70;;;;;;6335094;22;20776;-79
2022/10/08 10:28:43;;;;;;;;;;;26.10;69.70;;;;;;6336884;22;20380;-79
2022/10/08 10:31:31;;;;;;;4.90;1.88;;;26.20;69.30;;;;;;6334983;22;19929;-79
2022/10/08 10:34:00;;;;;;;3.45;1.75;;;26.40;69.30;;;;;;6336835;22;20453;-80
2022/10/08 10:36:31;;;;;;;3.15;2.05;;;26.60;69.00;;;;;;6337206;22;20340;-75
2022/10/08 10:39:29;;;;;;;3.20;1.80;;;26.70;67.20;;;;;;6309281;22;20014;-75
2022/10/08 10:42:29;;;;;;;4.55;1.63;;;26.80;65.30;;;;;;6301167;22;20011;-75
2022/10/08 10:45:07;;;;;;;3.40;2.25;;;26.90;65.10;;;;;;6335682;22;19999;-75
2022/10/08 10:47:33;;;;;;;2.47;1.15;;;26.80;65.30;;;;;;6337460;22;20030;-79
2022/10/08 10:50:02;;;;;;;3.45;1.48;;;26.90;66.70;;;;;;6337504;22;20006;-75
2022/10/08 10:52:46;;;;;;;6.13;1.57;;;27.00;66.20;;;;;;6310903;22;19999;-75
2022/10/08 10:55:41;;;;;;;3.13;1.63;;;27.10;64.10;;;;;;6337428;22;20288;-75
2022/10/08 10:58:22;;;;;;;3.10;1.30;;;27.20;64.70;;;;;;6286661;22;20438;-75
2022/10/08 11:01:07;;;;;;;4.07;1.55;;;27.40;64.50;;;;;;6337525;22;20003;-75
2022/10/08 11:04:08;;;;;;;3.00;1.20;;;27.50;65.00;;;;;;6336173;22;19995;-75
2022/10/08 11:07:22;;;;;;;6.72;1.80;;;27.70;64.40;;;;;;6302771;22;20030;-74
2022/10/08 11:10:02;;;;;;;5.75;2.20;;;27.80;65.60;;;;;;6332345;22;20010;-75
2022/10/08 11:12:41;;;;;;;5.43;2.20;;;27.90;64.80;;;;;;6336356;22;20032;-75
2022/10/08 11:15:25;;;;;;;4.38;2.35;;;27.90;65.30;;;;;;6337500;22;20002;-75
2022/10/08 11:18:12;;;;;;;8.60;2.85;;;27.90;65.40;;;;;;6337934;22;19995;-75
2022/10/08 11:20:58;;;;;;;5.88;2.15;;;27.90;65.30;;;;;;6337234;22;20073;-75
2022/10/08 11:23:38;;;;;;;4.93;1.90;;;28.20;65.10;;;;;;6337110;22;20360;-73
2022/10/08 11:26:24;;;;;;;6.47;2.08;;;28.40;63.40;;;;;;6337520;22;20599;-75
2022/10/08 11:28:55;;;;;;;4.72;2.40;;;28.60;63.00;;;;;;6338183;22;19999;-75
2022/10/08 11:31:43;;;;;;;2.85;1.60;;;28.60;62.40;;;;;;6337358;22;20398;-73
2022/10/08 11:34:29;;;;;;;4.43;1.95;;;28.80;61.30;;;;;;6336756;22;20573;-74
2022/10/08 11:37:23;;;;;;;4.32;1.67;;;29.10;59.10;;;;;;6337829;22;20415;-74
2022/10/08 11:39:58;;;;;;;6.78;2.08;;;29.30;57.50;;;;;;6337440;22;20211;-74
2022/10/08 11:42:51;;;;;;;3.15;1.20;;;29.50;57.40;;;;;;6336253;22;20497;-75
2022/10/08 11:45:23;;;;;;;2.22;1.40;;;30.00;56.40;;;;;;6337434;22;20006;-80
2022/10/08 11:47:53;;;;;;;6.30;1.80;;;30.40;54.60;;;;;;6336761;22;20330;-79
2022/10/08 11:50:34;;;;;;;6.47;1.50;;;30.50;55.00;;;;;;6325087;22;20307;-77
2022/10/08 11:53:09;;;;;;;6.43;1.65;;;30.80;54.80;;;;;;6334906;22;20003;-82
2022/10/08 11:55:36;;;;;;;4.50;1.55;;;30.30;53.40;;;;;;6334712;22;20398;-82
2022/10/08 11:58:38;;;;;;;6.07;1.65;;;30.40;54.90;;;;;;6336447;22;20082;-79
2022/10/08 12:01:06;;;;;;;10.63;2.00;;;30.60;55.00;;;;;;6334656;22;20010;-81
2022/10/08 12:03:40;;;;;;;5.25;1.75;;;30.70;53.70;;;;;;6307878;22;19999;-82
2022/10/08 12:06:22;;;;;;;4.00;1.70;;;30.80;53.50;;;;;;6335899;22;20013;-82
2022/10/08 12:08:49;;;;;;;5.28;1.80;;;30.90;53.90;;;;;;6307003;22;20007;-81
2022/10/08 12:11:36;;;;;;;6.97;1.98;;;31.00;53.50;;;;;;6334455;22;20002;-77
2022/10/08 12:14:11;;;;;;;5.05;1.90;;;31.00;54.10;;;;;;6333971;22;20069;-78
2022/10/08 12:16:57;;;;;;;5.05;1.73;;;30.70;54.00;;;;;;6334379;22;20003;-77
2022/10/08 12:19:32;;;;;;;13.32;2.53;;;30.70;55.60;;;;;;6334638;22;20370;-78
2022/10/08 12:22:14;;;;;;;4.35;2.15;;;30.60;54.80;;;;;;6334285;22;20009;-77
2022/10/08 12:24:39;;;;;;;6.03;2.50;;;30.50;55.20;;;;;;6334298;22;20007;-77
2022/10/08 12:27:17;;;;;;;8.05;2.00;;;30.40;55.90;;;;;;6334602;22;20003;-78
2022/10/08 12:29:55;;;;;;;6.47;2.33;;;30.40;54.60;;;;;;6337445;22;20003;-77
2022/10/08 12:32:42;;;;;;;6.95;2.58;;;30.40;55.40;;;;;;6335786;22;20083;-77
2022/10/08 12:35:24;;;;;;;6.22;2.75;;;30.50;56.10;;;;;;6336089;22;20003;-78
2022/10/08 12:38:14;;;;;;;6.55;2.80;;;30.60;56.10;;;;;;6335837;22;20301;-77
2022/10/08 12:41:04;;;;;;;3.58;2.03;;;30.60;56.20;;;;;;6338123;22;19999;-78
2022/10/08 12:43:45;;;;;;;9.20;2.33;;;30.70;56.60;;;;;;6335543;22;20451;-78
2022/10/08 12:46:48;;;;;;;9.73;2.90;;;30.70;57.50;;;;;;6337131;22;20069;-78
2022/10/08 12:49:16;;;;;;;7.35;2.47;;;30.40;56.40;;;;;;6309132;22;20326;-78
2022/10/08 12:51:58;;;;;;;9.00;2.40;;;30.40;57.40;;;;;;6336683;22;20082;-78
2022/10/08 12:54:26;;;;;;;4.88;2.63;;;30.30;56.60;;;;;;6337601;22;20414;-78
2022/10/08 12:56:53;;;;;;;7.32;2.13;;;30.10;55.40;;;;;;6309164;22;20337;-78
2022/10/08 12:59:22;;;;;;;6.78;2.00;;;29.80;57.80;;;;;;6310812;22;20073;-78
2022/10/08 13:01:50;;;;;;;7.75;2.65;;;29.50;59.10;;;;;;6311161;22;20007;-81
2022/10/08 13:04:22;;;;;;;4.15;2.17;;;29.10;59.30;;;;;;6338366;22;20007;-82
2022/10/08 13:06:50;;;;;;;4.97;2.60;;;28.70;60.10;;;;;;6310719;22;20003;-83
2022/10/08 13:09:26;;;;;;;5.28;2.47;;;28.40;59.70;;;;;;6309091;22;20003;-83